Time;durP1;ratioP1;P1;durP2;ratioP2;P2;SDS_P1;SDS_P2;PMS_P1;PMS_P2;Temp;Humidity;BMP_temperature;BMP_pressure;BME280_temperature;BME280_humidity;BME280_pressure;Samples;Min_cycle;Max_cycle;Signal;HPM_P1;HPM_P2
2021/09/23 00:02:14;;;;;;;22.10;16.27;;;;;;;14.79;53.54;96200.34;5003886;28;20026;-65
2021/09/23 00:04:40;;;;;;;20.00;14.70;;;;;;;14.70;53.94;96191.44;5004711;28;20034;-65
2021/09/23 00:07:06;;;;;;;27.92;17.85;;;;;;;14.74;53.59;96192.41;4997657;28;20046;-65
2021/09/23 00:09:31;;;;;;;25.77;17.67;;;;;;;14.71;53.71;96176.16;5008932;28;20042;-65
2021/09/23 00:11:57;;;;;;;24.17;16.38;;;;;;;14.76;53.42;96181.41;5008945;28;20050;-65
2021/09/23 00:14:22;;;;;;;21.08;15.50;;;;;;;14.63;53.73;96166.16;5007616;28;20108;-64
2021/09/23 00:16:49;;;;;;;21.25;14.50;;;;;;;14.70;53.51;96182.63;5006632;28;20026;-65
2021/09/23 00:19:15;;;;;;;19.10;14.05;;;;;;;14.64;53.90;96171.25;4988558;28;20042;-65
2021/09/23 00:21:40;;;;;;;22.42;16.58;;;;;;;14.64;53.57;96171.25;4997283;28;20038;-66
2021/09/23 00:24:05;;;;;;;29.30;18.55;;;;;;;14.54;53.88;96161.56;5005062;28;20121;-65
2021/09/23 00:26:31;;;;;;;24.85;17.52;;;;;;;14.57;53.56;96163.63;5007543;28;20034;-65
2021/09/23 00:28:56;;;;;;;31.42;19.42;;;;;;;14.59;53.76;96167.88;5009044;28;20091;-64
2021/09/23 00:31:22;;;;;;;20.73;15.38;;;;;;;14.52;53.53;96158.38;5008505;28;20122;-65
2021/09/23 00:33:48;;;;;;;21.08;14.75;;;;;;;14.46;53.78;96146.19;4988364;28;20113;-65
2021/09/23 00:36:13;;;;;;;19.73;15.73;;;;;;;14.44;53.46;96143.03;4997018;28;20049;-66
2021/09/23 00:38:39;;;;;;;19.17;15.48;;;;;;;14.43;53.67;96143.31;5001197;28;20482;-65
2021/09/23 00:41:04;;;;;;;22.88;15.80;;;;;;;14.47;53.98;96146.97;5010438;28;20132;-65
2021/09/23 00:43:30;;;;;;;27.65;18.42;;;;;;;14.36;53.96;96130.34;5008252;28;20518;-64
2021/09/23 00:45:56;;;;;;;29.98;17.88;;;;;;;14.39;53.57;96137.78;5008590;28;20027;-65
2021/09/23 00:48:21;;;;;;;28.10;17.73;;;;;;;14.36;54.09;96138.38;4992457;28;20053;-65
2021/09/23 00:50:48;;;;;;;27.27;17.58;;;;;;;14.30;53.76;96132.38;4993806;28;20033;-65
2021/09/23 00:53:17;;;;;;;23.80;15.50;;;;;;;14.25;54.05;96132.47;4998534;28;20045;-65
2021/09/23 00:55:42;;;;;;;19.92;15.60;;;;;;;14.35;54.06;96150.19;5009960;28;20033;-65
2021/09/23 00:58:07;;;;;;;25.67;16.23;;;;;;;14.24;53.87;96136.25;5008476;28;20034;-65
2021/09/23 01:00:33;;;;;;;20.02;15.38;;;;;;;14.25;53.53;96132.47;5007909;28;20157;-65
2021/09/23 01:02:58;;;;;;;27.73;17.20;;;;;;;14.27;53.65;96146.34;4995694;28;20034;-65
2021/09/23 01:05:24;;;;;;;28.33;17.20;;;;;;;14.29;53.84;96144.16;4990996;28;20542;-65
2021/09/23 01:07:50;;;;;;;23.65;17.05;;;;;;;14.25;53.77;96143.19;5001837;28;20018;-64
2021/09/23 01:10:18;;;;;;;18.85;15.48;;;;;;;14.22;53.51;96153.69;5007457;28;20034;-64
2021/09/23 01:12:44;;;;;;;32.97;19.63;;;;;;;14.21;53.57;96152.13;5007862;28;20038;-66
2021/09/23 01:15:11;;;;;;;22.75;15.50;;;;;;;14.20;53.78;96150.53;5006684;28;20056;-64
2021/09/23 01:17:37;;;;;;;28.27;17.20;;;;;;;14.18;53.64;96150.06;4997773;28;20053;-65
2021/09/23 01:20:04;;;;;;;24.52;15.82;;;;;;;14.16;53.96;96144.19;4989471;28;20026;-65
2021/09/23 01:22:29;;;;;;;23.73;17.27;;;;;;;14.18;53.72;96140.16;4979443;28;20085;-66
2021/09/23 01:24:55;;;;;;;24.90;16.73;;;;;;;14.05;53.96;96123.03;4986565;28;20038;-65
2021/09/23 01:27:20;;;;;;;20.13;14.38;;;;;;;14.14;53.60;96138.38;4987049;28;20572;-65
2021/09/23 01:29:46;;;;;;;27.90;18.20;;;;;;;14.08;53.65;96127.00;4987787;28;20108;-65
2021/09/23 01:32:12;;;;;;;24.88;17.02;;;;;;;14.03;53.78;96127.91;4986115;28;20049;-65
2021/09/23 01:34:41;;;;;;;22.45;15.98;;;;;;;14.09;54.02;96135.81;4989396;28;20428;-65
2021/09/23 01:37:08;;;;;;;28.13;19.50;;;;;;;13.97;54.31;96128.28;4987895;28;20069;-65
2021/09/23 01:39:34;;;;;;;30.23;18.00;;;;;;;13.96;53.97;96129.38;4987650;28;20054;-64
2021/09/23 01:42:00;;;;;;;29.10;18.23;;;;;;;13.90;53.85;96126.03;4987937;28;20096;-65
2021/09/23 01:44:26;;;;;;;28.60;17.35;;;;;;;13.99;54.14;96144.84;4986498;28;20031;-65
2021/09/23 01:46:51;;;;;;;22.23;16.63;;;;;;;13.94;53.88;96136.94;4989470;28;20027;-65
2021/09/23 01:49:17;;;;;;;22.80;16.45;;;;;;;13.93;54.33;96138.81;4987082;28;20031;-65
2021/09/23 01:51:43;;;;;;;34.25;19.60;;;;;;;13.96;54.07;96143.56;4987822;28;20034;-64
2021/09/23 01:54:08;;;;;;;27.50;18.92;;;;;;;13.96;54.02;96142.75;5002490;28;20692;-64
2021/09/23 01:56:34;;;;;;;29.30;18.75;;;;;;;13.90;54.01;96135.94;4987742;28;20079;-66
2021/09/23 01:58:59;;;;;;;32.58;20.00;;;;;;;13.81;54.26;96127.03;4989521;28;20496;-64
2021/09/23 02:01:24;;;;;;;26.02;18.73;;;;;;;13.88;54.25;96133.59;4986788;28;20035;-64
2021/09/23 02:03:50;;;;;;;30.75;18.75;;;;;;;13.84;54.01;96123.78;4985479;28;20042;-65
2021/09/23 02:06:15;;;;;;;38.70;20.60;;;;;;;13.87;54.15;96126.66;4987769;28;20039;-64
2021/09/23 02:08:41;;;;;;;33.40;20.15;;;;;;;13.85;53.95;96123.47;5002614;28;20050;-67
2021/09/23 02:11:07;;;;;;;39.17;20.08;;;;;;;13.76;54.30;96117.25;4988321;28;20469;-65
2021/09/23 02:13:33;;;;;;;22.88;15.35;;;;;;;13.77;53.91;96116.16;4987633;28;20369;-67
2021/09/23 02:15:58;;;;;;;27.63;19.17;;;;;;;13.83;53.93;96120.31;4986335;28;20089;-64
2021/09/23 02:18:24;;;;;;;21.60;16.50;;;;;;;13.73;54.16;96107.16;4987163;28;20538;-64
2021/09/23 02:20:50;;;;;;;32.13;18.90;;;;;;;13.78;54.08;96118.53;4987097;28;20031;-65
2021/09/23 02:23:17;;;;;;;31.73;19.35;;;;;;;13.78;54.09;96107.06;4986072;28;20027;-64
2021/09/23 02:25:42;;;;;;;31.48;18.20;;;;;;;13.69;53.99;96098.16;4989579;28;20100;-65
2021/09/23 02:28:08;;;;;;;38.05;20.55;;;;;;;13.76;54.10;96110.00;4987724;28;20054;-65
2021/09/23 02:30:33;;;;;;;22.55;16.90;;;;;;;13.73;53.75;96107.16;4987298;28;20044;-64
2021/09/23 02:32:59;;;;;;;32.42;18.88;;;;;;;13.65;53.89;96091.81;4986996;28;20061;-64
2021/09/23 02:35:25;;;;;;;28.95;18.08;;;;;;;13.71;54.06;96101.31;4989874;28;20065;-64
2021/09/23 02:37:50;;;;;;;27.17;17.65;;;;;;;13.70;54.01;96091.72;4993194;28;20058;-65
2021/09/23 02:40:16;;;;;;;25.02;16.50;;;;;;;13.64;53.88;96079.53;4990787;28;20039;-64
2021/09/23 02:42:44;;;;;;;24.05;16.70;;;;;;;13.66;53.77;96083.50;4991171;28;20564;-65
2021/09/23 02:45:12;;;;;;;24.67;17.30;;;;;;;13.70;54.06;96087.16;4991205;28;20280;-64
2021/09/23 02:47:37;;;;;;;23.10;16.73;;;;;;;13.62;54.03;96065.69;4990781;28;20073;-65
2021/09/23 02:50:04;;;;;;;23.70;16.35;;;;;;;13.60;53.92;96071.31;4974846;28;20638;-64
2021/09/23 02:52:29;;;;;;;30.15;18.38;;;;;;;13.67;53.86;96078.97;5000086;28;20044;-64
2021/09/23 02:54:55;;;;;;;18.02;14.25;;;;;;;13.62;53.91;96073.72;5009341;28;20034;-64
2021/09/23 02:57:20;;;;;;;19.33;15.38;;;;;;;13.64;54.03;96080.34;5010122;28;20040;-64
2021/09/23 02:59:46;;;;;;;19.77;15.20;;;;;;;13.60;54.09;96068.66;5009055;28;20049;-64
2021/09/23 03:02:11;;;;;;;22.38;15.90;;;;;;;13.57;53.95;96063.91;5009771;28;20030;-64
2021/09/23 03:04:37;;;;;;;21.38;15.32;;;;;;;13.68;54.14;96075.19;4992798;28;20041;-64
2021/09/23 03:07:02;;;;;;;25.63;17.00;;;;;;;13.63;53.95;96061.94;4989769;28;20057;-64
2021/09/23 03:09:27;;;;;;;21.48;15.00;;;;;;;13.66;54.00;96067.44;4989035;28;20042;-64
2021/09/23 03:11:53;;;;;;;22.88;15.65;;;;;;;13.57;53.64;96047.88;4989243;28;20037;-64
2021/09/23 03:14:18;;;;;;;25.58;15.68;;;;;;;13.57;53.84;96057.78;4990083;28;20570;-64
2021/09/23 03:16:43;;;;;;;29.10;17.17;;;;;;;13.56;53.83;96056.19;4991063;28;20041;-64
2021/09/23 03:19:09;;;;;;;26.95;15.98;;;;;;;13.58;53.85;96048.66;4989320;28;20042;-65
2021/09/23 03:21:36;;;;;;;24.23;16.05;;;;;;;13.52;53.76;96048.78;4994307;28;20084;-64
2021/09/23 03:24:02;;;;;;;24.15;16.58;;;;;;;13.53;53.94;96039.66;5001417;28;20107;-66
2021/09/23 03:26:27;;;;;;;16.38;14.55;;;;;;;13.49;54.04;96036.00;5008569;28;20076;-64
2021/09/23 03:28:53;;;;;;;28.75;17.80;;;;;;;13.41;54.12;96028.72;5010012;28;20513;-64
2021/09/23 03:31:18;;;;;;;20.70;14.98;;;;;;;13.50;54.17;96042.13;5008198;28;20049;-65
2021/09/23 03:33:43;;;;;;;30.55;19.02;;;;;;;13.44;53.96;96028.09;4996810;28;20452;-64
2021/09/23 03:36:09;;;;;;;20.80;15.13;;;;;;;13.40;53.98;96029.00;4990702;28;20034;-65
2021/09/23 03:38:34;;;;;;;21.45;14.05;;;;;;;13.31;54.17;96010.22;5001075;28;20042;-64
2021/09/23 03:40:59;;;;;;;20.67;14.48;;;;;;;13.35;54.00;96024.53;5010002;28;20032;-64
2021/09/23 03:43:25;;;;;;;17.92;14.73;;;;;;;13.40;54.09;96048.47;5009479;28;20042;-66
2021/09/23 03:45:51;;;;;;;19.35;14.98;;;;;;;13.37;54.10;96035.75;5008771;28;20500;-65
2021/09/23 03:48:19;;;;;;;17.88;13.40;;;;;;;13.34;54.02;96032.88;5000927;28;20382;-64
2021/09/23 03:50:46;;;;;;;17.98;13.88;;;;;;;13.41;54.05;96030.56;4989213;28;20050;-64
2021/09/23 03:53:11;;;;;;;15.48;13.27;;;;;;;13.41;53.88;96033.25;4997480;28;20037;-64
2021/09/23 03:55:37;;;;;;;26.65;15.25;;;;;;;13.39;53.90;96027.41;4991616;28;20026;-65
2021/09/23 03:58:03;;;;;;;18.35;13.63;;;;;;;13.38;54.07;96026.63;4988260;28;20134;-64
2021/09/23 04:00:28;;;;;;;20.90;14.43;;;;;;;13.29;53.92;96009.72;4989319;28;20487;-64
2021/09/23 04:02:53;;;;;;;19.20;12.70;;;;;;;13.35;53.97;96016.53;4988759;28;20077;-65
2021/09/23 04:05:19;;;;;;;18.05;13.35;;;;;;;13.32;53.85;96014.47;4989555;28;20049;-64
2021/09/23 04:07:44;;;;;;;18.83;14.40;;;;;;;13.31;53.81;96001.38;4999478;28;20010;-64
2021/09/23 04:10:10;;;;;;;23.52;16.55;;;;;;;13.36;54.09;96003.94;5005777;28;20058;-64
2021/09/23 04:12:36;;;;;;;18.55;13.82;;;;;;;13.38;54.09;96007.91;5008639;28;20038;-64
2021/09/23 04:15:03;;;;;;;21.30;15.15;;;;;;;13.32;54.14;96003.00;5008927;28;20578;-64
2021/09/23 04:17:28;;;;;;;19.13;14.20;;;;;;;13.34;54.24;96001.59;5008041;28;20037;-64
2021/09/23 04:19:53;;;;;;;20.15;14.00;;;;;;;13.28;54.42;96000.13;4990669;28;20022;-64
2021/09/23 04:22:19;;;;;;;17.77;14.75;;;;;;;13.23;54.07;95993.00;5012156;28;20037;-64
2021/09/23 04:24:45;;;;;;;23.70;15.65;;;;;;;13.32;54.18;95993.09;5002313;28;20567;-65
2021/09/23 04:27:10;;;;;;;26.85;16.63;;;;;;;13.29;54.37;95993.69;5008714;28;20041;-64
2021/09/23 04:29:36;;;;;;;14.50;12.95;;;;;;;13.27;54.34;95990.53;5008288;28;20042;-64
2021/09/23 04:32:02;;;;;;;19.45;13.77;;;;;;;13.27;54.31;95979.84;5010427;28;20030;-64
2021/09/23 04:34:27;;;;;;;20.92;14.45;;;;;;;13.19;54.10;95965.25;4991959;28;20065;-65
2021/09/23 04:36:52;;;;;;;19.98;15.00;;;;;;;13.26;54.30;95964.91;4995875;28;20068;-64
2021/09/23 04:39:18;;;;;;;23.17;15.95;;;;;;;13.17;54.39;95964.00;5000381;28;20117;-64
2021/09/23 04:41:45;;;;;;;19.67;13.45;;;;;;;13.15;54.55;95955.47;5009070;28;20026;-65
2021/09/23 04:44:10;;;;;;;18.30;13.00;;;;;;;13.21;54.50;95965.00;5006999;28;20073;-62
2021/09/23 04:46:36;;;;;;;20.38;14.13;;;;;;;13.10;54.51;95944.91;5010169;28;20029;-65
2021/09/23 04:49:01;;;;;;;19.95;13.65;;;;;;;13.10;54.39;95951.03;4995190;28;20122;-65
2021/09/23 04:51:27;;;;;;;19.33;13.70;;;;;;;13.14;54.82;95952.00;4991634;28;20462;-64
2021/09/23 04:53:54;;;;;;;26.15;16.63;;;;;;;13.20;54.77;95952.69;4998517;28;20144;-65
2021/09/23 04:56:19;;;;;;;14.50;12.93;;;;;;;13.12;54.73;95942.75;5006950;28;20400;-64
2021/09/23 04:58:45;;;;;;;26.80;16.85;;;;;;;13.21;55.10;95955.13;5008854;28;20029;-64
2021/09/23 05:01:10;;;;;;;19.27;14.43;;;;;;;13.23;54.82;95946.78;5008117;28;20496;-64
2021/09/23 05:03:36;;;;;;;17.92;13.18;;;;;;;13.15;54.61;95928.75;4999182;28;20285;-64
2021/09/23 05:06:01;;;;;;;17.17;13.27;;;;;;;13.24;54.65;95935.00;4988253;28;20548;-64
2021/09/23 05:08:27;;;;;;;13.90;12.00;;;;;;;13.11;54.66;95928.59;5014447;28;20048;-64
2021/09/23 05:10:52;;;;;;;19.38;14.13;;;;;;;13.26;55.01;95930.97;5008200;28;20392;-65
2021/09/23 05:13:18;;;;;;;17.85;13.48;;;;;;;13.23;54.56;95931.56;5007509;28;20034;-64
2021/09/23 05:15:43;;;;;;;13.93;12.18;;;;;;;13.20;55.12;95915.28;5007799;28;20046;-67
2021/09/23 05:18:13;;;;;;;19.80;13.27;;;;;;;13.19;55.64;95914.50;5003754;28;20052;-66
2021/09/23 05:20:39;;;;;;;18.80;13.63;;;;;;;13.29;55.22;95920.75;4986732;28;20034;-68
2021/09/23 05:23:05;;;;;;;16.73;12.20;;;;;;;13.31;54.89;95897.19;4996455;28;20116;-64
2021/09/23 05:25:31;;;;;;;17.92;13.65;;;;;;;13.44;54.84;95899.03;4968454;28;20031;-66
2021/09/23 05:27:57;;;;;;;16.98;12.32;;;;;;;13.30;55.43;95900.94;4968863;28;20524;-66
2021/09/23 05:30:23;;;;;;;16.27;13.50;;;;;;;13.56;55.15;95907.28;4968207;28;20043;-66
2021/09/23 05:32:49;;;;;;;18.75;14.05;;;;;;;13.71;55.01;95898.09;4968470;28;20042;-66
2021/09/23 05:35:15;;;;;;;14.07;12.50;;;;;;;13.63;55.03;95882.81;4987037;28;20025;-66
2021/09/23 05:37:41;;;;;;;18.83;12.38;;;;;;;13.68;55.24;95888.03;4970353;28;20050;-66
2021/09/23 05:40:08;;;;;;;17.10;11.40;;;;;;;13.73;54.83;95907.41;4983593;28;20057;-65
2021/09/23 05:42:33;;;;;;;14.88;13.23;;;;;;;13.91;55.22;95902.94;4987866;28;20395;-66
2021/09/23 05:45:00;;;;;;;12.88;11.43;;;;;;;14.04;54.90;95896.75;4987867;28;20046;-66
2021/09/23 05:47:26;;;;;;;20.73;13.02;;;;;;;14.00;55.09;95893.09;4987947;28;20076;-66
2021/09/23 05:49:51;;;;;;;17.15;11.95;;;;;;;13.96;54.82;95877.97;4972743;28;20027;-66
2021/09/23 05:52:16;;;;;;;15.15;12.85;;;;;;;14.18;54.54;95885.16;4968404;28;20400;-66
2021/09/23 05:54:43;;;;;;;12.15;10.88;;;;;;;14.13;54.80;95890.66;4980546;28;20073;-66
2021/09/23 05:57:09;;;;;;;13.60;11.10;;;;;;;14.12;55.02;95883.69;4986610;28;20038;-66
2021/09/23 05:59:35;;;;;;;12.43;11.18;;;;;;;14.36;54.69;95892.16;4986011;28;20440;-65
2021/09/23 06:02:00;;;;;;;12.77;10.80;;;;;;;14.51;54.33;95881.06;4989859;28;20022;-66
2021/09/23 06:04:26;;;;;;;13.90;9.90;;;;;;;14.64;54.12;95881.25;4974704;28;20473;-69
2021/09/23 06:06:51;;;;;;;10.43;9.43;;;;;;;14.57;54.06;95845.00;4981689;28;20125;-68
2021/09/23 06:09:17;;;;;;;11.10;9.30;;;;;;;14.92;53.82;95881.78;5003392;28;20404;-69
2021/09/23 06:11:43;;;;;;;14.32;9.95;;;;;;;14.93;53.58;95862.72;4986996;28;20135;-65
2021/09/23 06:14:09;;;;;;;14.15;10.68;;;;;;;15.01;52.90;95867.31;4993249;28;20525;-67
2021/09/23 06:16:35;;;;;;;11.02;9.65;;;;;;;15.12;53.61;95869.69;5009084;28;20033;-64
2021/09/23 06:19:01;;;;;;;11.65;10.35;;;;;;;15.30;53.35;95876.59;4992849;28;20042;-65
2021/09/23 06:21:26;;;;;;;11.70;10.50;;;;;;;15.39;53.04;95879.28;4989913;28;20038;-63
2021/09/23 06:23:52;;;;;;;12.68;10.35;;;;;;;15.42;53.02;95852.66;4989671;28;20034;-65
2021/09/23 06:26:19;;;;;;;10.45;9.15;;;;;;;15.63;53.01;95873.44;4990437;28;20426;-68
2021/09/23 06:28:45;;;;;;;11.30;9.13;;;;;;;15.61;52.76;95873.78;4993111;28;20112;-66
2021/09/23 06:31:10;;;;;;;9.52;8.05;;;;;;;15.74;52.29;95875.50;4991323;28;20046;-64
2021/09/23 06:33:36;;;;;;;9.85;8.85;;;;;;;15.76;51.99;95853.72;4990656;28;20067;-66
2021/09/23 06:36:01;;;;;;;9.73;8.20;;;;;;;15.96;52.00;95868.34;4991309;28;20532;-68
2021/09/23 06:38:27;;;;;;;9.95;7.53;;;;;;;15.95;51.36;95870.25;5001809;28;20022;-67
2021/09/23 06:40:55;;;;;;;9.48;8.10;;;;;;;16.06;51.78;95860.72;5011161;28;20034;-66
2021/09/23 06:43:23;;;;;;;10.32;9.40;;;;;;;16.20;51.36;95867.81;5010492;28;20053;-67
2021/09/23 06:45:49;;;;;;;9.88;8.85;;;;;;;16.25;51.27;95879.16;5010751;28;20113;-69
2021/09/23 06:48:14;;;;;;;11.63;10.50;;;;;;;16.43;51.80;95887.94;5009059;28;20180;-66
2021/09/23 06:50:40;;;;;;;11.10;10.02;;;;;;;16.42;51.60;95872.91;4990421;28;20057;-66
2021/09/23 06:53:05;;;;;;;11.07;9.98;;;;;;;16.58;51.47;95879.34;5000659;28;20100;-63
2021/09/23 06:55:31;;;;;;;11.25;10.00;;;;;;;16.64;51.31;95879.94;5002773;28;20045;-69
2021/09/23 06:57:57;;;;;;;12.30;9.93;;;;;;;16.79;51.56;95879.41;5010536;28;20487;-62
2021/09/23 07:00:22;;;;;;;10.85;9.38;;;;;;;16.88;50.81;95880.13;5009817;28;20037;-65
2021/09/23 07:02:48;;;;;;;10.43;9.18;;;;;;;16.82;50.94;95859.16;5010842;28;20038;-63
2021/09/23 07:05:13;;;;;;;10.48;9.43;;;;;;;17.05;50.68;95867.69;4993592;28;20081;-66
2021/09/23 07:07:39;;;;;;;11.77;8.80;;;;;;;17.17;50.34;95875.81;4992840;28;20018;-69
2021/09/23 07:10:05;;;;;;;9.88;8.88;;;;;;;17.29;50.24;95869.72;4997771;28;20472;-64
2021/09/23 07:12:32;;;;;;;9.10;7.60;;;;;;;17.36;49.96;95870.78;4989280;28;20462;-69
2021/09/23 07:14:57;;;;;;;9.23;8.27;;;;;;;17.41;49.80;95854.44;4990790;28;20109;-69
2021/09/23 07:17:23;;;;;;;8.70;7.93;;;;;;;17.49;49.56;95852.78;4989598;28;20109;-68
2021/09/23 07:19:49;;;;;;;7.75;6.90;;;;;;;17.54;49.12;95846.41;4991453;28;20512;-68
2021/09/23 07:22:15;;;;;;;14.10;8.20;;;;;;;17.65;49.10;95844.88;4971205;28;20556;-69
2021/09/23 07:24:44;;;;;;;10.88;7.43;;;;;;;17.82;48.96;95860.88;4989690;28;20125;-68
2021/09/23 07:27:09;;;;;;;10.23;7.28;;;;;;;17.78;48.49;95845.75;4990334;28;20038;-68
2021/09/23 07:29:35;;;;;;;8.63;7.72;;;;;;;17.74;48.60;95844.81;4989578;28;20042;-69
2021/09/23 07:32:01;;;;;;;8.65;7.13;;;;;;;17.93;48.43;95848.56;4992049;28;20113;-69
2021/09/23 07:34:27;;;;;;;8.48;6.85;;;;;;;17.91;47.67;95837.38;4989482;28;20038;-69
2021/09/23 07:36:52;;;;;;;7.78;7.07;;;;;;;18.11;48.03;95851.06;4976367;28;20046;-69
2021/09/23 07:39:18;;;;;;;6.97;6.28;;;;;;;18.17;47.47;95829.00;4977399;28;20050;-69
2021/09/23 07:41:44;;;;;;;7.20;6.50;;;;;;;18.27;47.37;95829.66;4975083;28;20030;-68
2021/09/23 07:44:12;;;;;;;6.25;5.22;;;;;;;18.25;46.80;95827.31;4991742;28;20085;-69
2021/09/23 07:46:38;;;;;;;7.10;6.28;;;;;;;18.43;46.80;95833.28;4990327;28;20104;-69
2021/09/23 07:49:05;;;;;;;9.02;6.10;;;;;;;18.53;46.37;95832.00;4989207;28;20046;-69
2021/09/23 07:51:30;;;;;;;5.95;5.38;;;;;;;18.61;46.63;95834.59;4981788;28;20137;-69
2021/09/23 07:53:56;;;;;;;6.97;5.60;;;;;;;18.64;46.23;95822.38;4989597;28;20122;-69
2021/09/23 07:56:21;;;;;;;7.43;5.25;;;;;;;18.81;46.28;95822.13;5008396;28;20030;-68
2021/09/23 07:58:47;;;;;;;6.20;5.05;;;;;;;18.79;45.77;95818.22;5010834;28;20018;-69
2021/09/23 08:01:12;;;;;;;6.72;4.90;;;;;;;18.91;45.82;95815.50;5009444;28;20062;-70
2021/09/23 08:03:37;;;;;;;6.32;5.28;;;;;;;18.79;45.65;95797.44;5006788;28;20045;-72
2021/09/23 08:06:03;;;;;;;5.88;4.95;;;;;;;19.01;45.44;95806.94;4989638;28;20046;-69
2021/09/23 08:08:29;;;;;;;6.53;4.97;;;;;;;19.01;45.45;95803.44;4997455;28;20073;-69
2021/09/23 08:10:54;;;;;;;5.40;4.85;;;;;;;18.98;44.83;95814.91;5005793;28;20057;-69
2021/09/23 08:13:20;;;;;;;5.57;4.45;;;;;;;18.90;45.12;95801.22;5008895;28;20034;-70
2021/09/23 08:15:45;;;;;;;5.43;4.47;;;;;;;18.87;44.52;95807.28;5009245;28;20125;-71
2021/09/23 08:18:12;;;;;;;5.28;4.88;;;;;;;19.10;44.74;95817.59;5009183;28;20038;-70
2021/09/23 08:20:38;;;;;;;5.18;4.78;;;;;;;19.06;44.39;95805.91;4990903;28;20030;-69
2021/09/23 08:23:04;;;;;;;5.40;4.95;;;;;;;18.62;45.23;95829.97;4998763;28;20036;-70
2021/09/23 08:25:30;;;;;;;4.95;4.55;;;;;;;19.03;45.45;95826.25;4981363;28;20104;-70
2021/09/23 08:27:55;;;;;;;5.05;4.55;;;;;;;18.96;46.14;95840.31;4989383;28;20042;-70
2021/09/23 08:30:21;;;;;;;5.40;4.53;;;;;;;18.87;45.47;95822.69;4988893;28;20049;-72
2021/09/23 08:32:46;;;;;;;4.80;4.40;;;;;;;19.35;44.66;95829.09;4988745;28;20038;-72
2021/09/23 08:35:12;;;;;;;4.40;4.07;;;;;;;19.67;43.72;95827.28;4988630;28;20030;-69
2021/09/23 08:37:38;;;;;;;4.93;4.53;;;;;;;19.86;43.75;95827.41;4991489;28;20084;-69
2021/09/23 08:40:09;;;;;;;5.82;4.40;;;;;;;19.74;43.39;95819.38;5004251;28;20224;-70
2021/09/23 08:42:36;;;;;;;4.95;4.20;;;;;;;19.71;43.28;95820.84;5009589;28;20041;-70
2021/09/23 08:45:02;;;;;;;4.50;3.97;;;;;;;19.91;42.98;95829.84;5009607;28;20033;-70
2021/09/23 08:47:28;;;;;;;6.90;4.30;;;;;;;20.10;42.99;95831.06;5009415;28;20431;-72
2021/09/23 08:49:53;;;;;;;4.72;3.78;;;;;;;19.92;42.98;95809.81;4999738;28;20029;-71
2021/09/23 08:52:19;;;;;;;4.18;3.85;;;;;;;20.21;42.82;95822.09;4971534;28;20054;-72
2021/09/23 08:54:44;;;;;;;5.03;4.55;;;;;;;20.28;42.64;95820.72;4976314;28;20476;-70
2021/09/23 08:57:09;;;;;;;4.20;3.67;;;;;;;20.39;42.23;95816.34;4977358;28;20030;-70
2021/09/23 08:59:35;;;;;;;4.88;4.13;;;;;;;20.34;42.27;95828.19;4988452;28;20061;-70
2021/09/23 09:02:00;;;;;;;6.00;4.03;;;;;;;20.56;42.18;95817.91;4990782;28;20072;-68
2021/09/23 09:04:33;;;;;;;4.50;4.20;;;;;;;20.54;42.06;95829.09;4988026;28;20468;-70
2021/09/23 09:07:00;;;;;;;4.72;4.20;;;;;;;20.72;42.74;95826.78;4987188;28;20034;-69
2021/09/23 09:09:27;;;;;;;4.20;3.80;;;;;;;20.26;42.27;95812.94;4996017;28;20493;-69
2021/09/23 09:11:54;;;;;;;3.90;3.60;;;;;;;20.34;43.02;95822.03;4988468;28;20128;-69
2021/09/23 09:14:29;;;;;;;7.97;4.05;;;;;;;20.97;41.80;95816.50;4987688;28;20545;-70
2021/09/23 09:17:00;;;;;;;4.10;3.80;;;;;;;21.16;40.98;95799.53;4990261;28;20029;-70
2021/09/23 09:19:25;;;;;;;7.63;4.38;;;;;;;21.29;40.73;95799.03;4987553;28;20209;-69
2021/09/23 09:21:50;;;;;;;3.40;3.17;;;;;;;21.30;40.25;95805.25;4988160;28;20137;-70
2021/09/23 09:24:18;;;;;;;4.60;3.85;;;;;;;21.41;40.29;95805.47;5004118;28;20038;-71
2021/09/23 09:26:44;;;;;;;3.78;3.47;;;;;;;21.35;40.84;95791.44;4988252;28;20050;-71
2021/09/23 09:29:11;;;;;;;3.65;3.35;;;;;;;21.36;40.64;95798.41;4989807;28;20014;-70
2021/09/23 09:31:45;;;;;;;3.92;3.63;;;;;;;21.68;40.44;95803.66;4988660;28;20090;-72
2021/09/23 09:34:11;;;;;;;3.92;3.60;;;;;;;21.80;40.68;95795.34;4987381;28;20042;-70
2021/09/23 09:36:39;;;;;;;4.50;3.70;;;;;;;21.79;40.27;95786.44;4988064;28;20030;-67
2021/09/23 09:39:13;;;;;;;6.95;3.33;;;;;;;22.06;40.11;95806.28;4995644;28;20045;-68
2021/09/23 09:41:42;;;;;;;4.35;3.80;;;;;;;21.38;39.71;95798.06;4968876;28;20089;-71
2021/09/23 09:44:10;;;;;;;3.88;3.58;;;;;;;21.61;40.40;95798.13;4970090;28;20380;-67
2021/09/23 09:46:41;;;;;;;3.88;3.40;;;;;;;22.07;39.95;95793.50;4969153;28;20046;-68
2021/09/23 09:49:07;;;;;;;3.65;3.35;;;;;;;22.18;39.37;95791.78;4969162;28;20412;-68
2021/09/23 09:51:37;;;;;;;3.92;3.25;;;;;;;22.38;39.28;95789.00;4987827;28;20042;-67
2021/09/23 09:54:03;;;;;;;3.22;3.03;;;;;;;22.42;39.08;95787.09;4995439;28;20519;-67
2021/09/23 09:56:29;;;;;;;3.53;3.22;;;;;;;22.37;38.83;95771.16;4988126;28;20105;-67
2021/09/23 09:59:04;;;;;;;3.60;3.30;;;;;;;22.54;38.85;95786.91;4989436;28;20097;-67
2021/09/23 10:01:30;;;;;;;3.28;3.00;;;;;;;22.64;38.56;95786.28;4987899;28;20042;-67
2021/09/23 10:03:56;;;;;;;3.63;3.33;;;;;;;22.72;38.28;95777.09;4987653;28;20037;-70
2021/09/23 10:06:22;;;;;;;5.38;2.50;;;;;;;22.40;38.23;95770.44;4986041;28;20527;-67
2021/09/23 10:08:48;;;;;;;2.60;2.40;;;;;;;22.47;38.76;95762.41;4995364;28;20061;-66
2021/09/23 10:11:14;;;;;;;2.70;2.50;;;;;;;22.73;37.42;95770.53;5005477;28;20022;-66
2021/09/23 10:13:40;;;;;;;2.65;2.45;;;;;;;22.69;37.53;95767.00;5008770;28;20378;-66
2021/09/23 10:16:05;;;;;;;2.55;2.45;;;;;;;22.81;37.72;95753.19;5007851;28;20030;-69
2021/09/23 10:18:31;;;;;;;2.97;2.78;;;;;;;23.04;38.09;95758.56;5008122;28;20530;-70
2021/09/23 10:20:58;;;;;;;2.70;2.50;;;;;;;22.95;37.52;95746.44;4992514;28;20046;-76
2021/09/23 10:23:28;;;;;;;2.92;2.47;;;;;;;23.16;38.09;95757.56;4990775;28;20118;-67
2021/09/23 10:25:54;;;;;;;3.05;2.55;;;;;;;22.82;37.52;95754.75;5001127;28;20113;-67
2021/09/23 10:28:20;;;;;;;2.78;2.05;;;;;;;23.09;37.34;95744.69;5007315;28;20088;-65
2021/09/23 10:30:46;;;;;;;2.60;1.98;;;;;;;23.22;36.35;95747.16;5006968;28;20559;-65
2021/09/23 10:33:11;;;;;;;2.22;2.00;;;;;;;23.31;36.25;95747.63;5007029;28;20034;-65
2021/09/23 10:35:37;;;;;;;2.25;2.05;;;;;;;23.45;35.77;95749.72;4994854;28;20049;-65
2021/09/23 10:38:06;;;;;;;2.22;2.03;;;;;;;23.44;35.84;95748.16;4989247;28;20849;-65
2021/09/23 10:40:35;;;;;;;2.45;2.15;;;;;;;23.50;36.27;95743.97;4979378;28;20042;-65
2021/09/23 10:43:05;;;;;;;2.08;1.95;;;;;;;23.37;35.47;95748.88;5002380;28;20451;-66
2021/09/23 10:45:31;;;;;;;2.42;2.22;;;;;;;23.59;36.24;95747.91;5007003;28;20104;-65
2021/09/23 10:48:00;;;;;;;2.42;2.22;;;;;;;23.82;35.42;95745.09;5006888;28;20048;-65
2021/09/23 10:50:28;;;;;;;2.65;2.45;;;;;;;23.46;35.15;95737.72;4996132;28;20724;-65
2021/09/23 10:52:56;;;;;;;2.90;2.03;;;;;;;23.66;34.63;95728.25;4988552;28;20030;-65
2021/09/23 10:55:27;;;;;;;1.98;1.88;;;;;;;23.42;35.12;95729.53;4987001;28;20046;-65
2021/09/23 10:57:54;;;;;;;5.68;1.92;;;;;;;23.77;34.74;95723.69;4990348;28;20054;-66
2021/09/23 11:00:28;;;;;;;2.35;1.83;;;;;;;23.69;33.99;95738.34;4990449;28;20038;-65
2021/09/23 11:02:55;;;;;;;2.55;2.20;;;;;;;23.98;34.38;95733.19;4990434;28;20425;-65
2021/09/23 11:05:22;;;;;;;1.90;1.80;;;;;;;24.06;34.60;95730.16;4990424;28;20030;-65
2021/09/23 11:07:49;;;;;;;2.53;1.90;;;;;;;24.14;34.44;95733.69;4992431;28;20026;-66
2021/09/23 11:10:23;;;;;;;2.55;2.08;;;;;;;24.18;34.01;95725.56;4998379;28;20045;-71
2021/09/23 11:12:52;;;;;;;2.50;2.00;;;;;;;23.94;34.30;95713.34;5010279;28;20042;-70
2021/09/23 11:15:20;;;;;;;2.60;2.30;;;;;;;24.08;34.16;95721.63;5010563;28;20046;-72
2021/09/23 11:17:47;;;;;;;2.53;1.85;;;;;;;24.20;33.73;95713.16;5010411;28;20042;-70
2021/09/23 11:20:44;;;;;;;2.17;2.08;;;;;;;23.76;34.46;95711.28;5001572;28;20506;-70